• Join FlightAware (Why Join?)
  • Login
  • US Flag 
06:50AM EST


 

Airport Tracker/Info


-or-


 

Live Flight TrackerFlight Track Log ✈ EJA312 ✈ 11-Oct-2013 ✈ KJQF - KBED

Flight Track Log - Related Links

Times and Time Zones

All times are in EDT time to prevent confusion due to time zone crossing. See the EJA312 flight status page for this flight to view local times or setup timezone preferences in your user account.

Time Position Orientation Groundspeed Altitude Reporting Facility
EDT Latitude Longitude Course Direction KTS MPH feet Rate Location/Type
09:07PM 35.3956 -80.7089 21° North 169 194 1,400  Level Atlanta Center
09:08PM 35.4431 -80.6867 21° North 187 215 4,000 2,700 Climbing Atlanta Center
09:08PM 35.4431 -80.6892 270° West 182 209 4,200 1,500 Climbing Atlanta Center
09:09PM 35.4411 -80.6153 92° East 224 258 5,500 1,320 Climbing Atlanta Center
09:09PM 35.4431 -80.6178 314° West 231 266 5,600 2,100 Climbing Atlanta Center
09:10PM 35.4158 -80.5397 113° Southeast 230 265 7,600 1,560 Climbing Atlanta Center
09:11PM 35.3844 -80.4597 116° Southeast 263 303 8,700 1,560 Climbing Atlanta Center
09:12PM 35.3572 -80.3819 113° Southeast 271 312 10,800 2,520 Climbing Atlanta Center
09:14PM 35.3997 -80.1992 74° East 275 316 16,100 2,640 Climbing Washington Center
09:15PM 35.4283 -80.1039 70° East 289 333 18,500 2,280 Climbing Washington Center
09:16PM 35.4525 -80.0158 71° East 294 338 20,800 2,220 Climbing Washington Center
09:17PM 35.4814 -79.9131 71° East 300 345 23,000 2,100 Climbing Washington Center
09:18PM 35.5100 -79.8072 72° East 307 353 25,100 1,920 Climbing Washington Center
09:19PM 35.5386 -79.7042 71° East 314 361 26,900 1,860 Climbing Washington Center
09:20PM 35.5764 -79.5811 69° East 333 383 28,900 1,740 Climbing Washington Center
09:21PM 35.6047 -79.4753 72° East 343 395 30,400 1,740 Climbing Washington Center
09:22PM 35.6417 -79.3644 68° East 352 405 32,400 1,860 Climbing Washington Center
09:23PM 35.6867 -79.2592 62° Northeast 347 399 34,100 1,260 Climbing Washington Center
09:24PM 35.7297 -79.1461 65° Northeast 352 405 35,000 420 Climbing Washington Center
09:25PM 35.7792 -79.0253 63° Northeast 369 425 35,000  Level Washington Center
09:26PM 35.8331 -78.8919 63° Northeast 401 461 35,000  Level Washington Center
09:27PM 35.8831 -78.7403 68° East 421 484 35,000  Level Washington Center
09:28PM 35.8956 -78.5842 84° East 438 504 35,000  Level Washington Center
09:29PM 35.9117 -78.4311 83° East 444 511 35,000  Level Washington Center
09:30PM 35.9256 -78.2775 84° East 444 511 35,000  Level Washington Center
09:31PM 35.9394 -78.1267 83° East 444 511 35,000  Level Washington Center
09:32PM 35.9633 -77.9761 79° East 444 511 35,000  Level Washington Center
09:33PM 36.0325 -77.8472 56° Northeast 432 497 35,000  Level Washington Center
09:34PM 36.0997 -77.7206 57° Northeast 432 497 35,000  Level Washington Center
09:35PM 36.1686 -77.5911 57° Northeast 437 503 35,000  Level Washington Center
09:36PM 36.2375 -77.4642 56° Northeast 442 509 35,000  Level Washington Center
09:37PM 36.2933 -77.3494 59° Northeast 442 509 35,000  Level Washington Center
09:38PM 36.3619 -77.2272 55° Northeast 436 502 35,000  Level Washington Center
09:39PM 36.4592 -77.1336 38° Northeast 424 488 35,000  Level Washington Center
09:40PM 36.5622 -77.0556 31° Northeast 424 488 35,000  Level Washington Center
09:41PM 36.6675 -76.9747 32° Northeast 431 496 35,000  Level Washington Center
09:42PM 36.7706 -76.8961 31° Northeast 431 496 35,000  Level Washington Center
09:43PM 36.8758 -76.8175 31° Northeast 436 502 35,000  Level Washington Center
09:44PM 36.9808 -76.7358 32° Northeast 436 502 35,000  Level Washington Center
09:45PM 37.0944 -76.6492 31° Northeast 436 502 35,000  Level Washington Center
09:46PM 37.1972 -76.5697 32° Northeast 436 502 35,000 480 Level Washington Center
09:47PM 37.3022 -76.4900 31° Northeast 436 502 36,000 1,080 Climbing Washington Center
09:48PM 37.4008 -76.4050 34° Northeast 436 502 37,200 1,140 Climbing Washington Center
09:49PM 37.4953 -76.3194 36° Northeast 425 489 38,300 840 Climbing Washington Center
09:50PM 37.5894 -76.2392 34° Northeast 418 481 39,000 300 Climbing Washington Center
09:51PM 37.6881 -76.1533 35° Northeast 417 480 39,000  Level Washington Center
09:52PM 37.7864 -76.0700 34° Northeast 422 486 39,000  Level Washington Center
09:53PM 37.8847 -75.9811 35° Northeast 422 486 39,000  Level Washington Center
09:54PM 37.9850 -75.8947 34° Northeast 432 497 39,000  Level Washington Center
09:55PM 38.0853 -75.8056 35° Northeast 432 497 39,000  Level Washington Center
09:56PM 38.1836 -75.7186 35° Northeast 432 497 39,000  Level Washington Center
09:57PM 38.2733 -75.6394 35° Northeast 432 497 39,000  Level Washington Center
09:58PM 38.3858 -75.5414 34° Northeast 432 497 39,000  Level Washington Center
09:59PM 38.4858 -75.4564 34° Northeast 432 497 39,000  Level Washington Center
10:00PM 38.5836 -75.3686 35° Northeast 432 497 39,000  Level Washington Center
10:01PM 38.6814 -75.2753 37° Northeast 432 497 39,000  Level Washington Center
10:02PM 38.7811 -75.1894 34° Northeast 432 497 39,000  Level Washington Center
10:03PM 38.8808 -75.1011 35° Northeast 432 497 39,000  Level Washington Center
10:04PM 38.9786 -75.0094 36° Northeast 432 497 39,000  Level Washington Center
10:05PM 39.0781 -74.9206 35° Northeast 427 491 39,000  Level Washington Center
10:06PM 39.1775 -74.8286 36° Northeast 433 498 39,000  Level Washington Center
10:07PM 39.2769 -74.7364 36° Northeast 433 498 39,000  Level Washington Center
10:08PM 39.3722 -74.6467 36° Northeast 433 498 39,000  Level Washington Center
10:09PM 39.4611 -74.5647 35° Northeast 433 498 39,000 -660 Level Washington Center
10:11PM 39.6667 -74.3739 36° Northeast 428 493 37,000 -660 Descending New York Center
10:12PM 39.7653 -74.2817 36° Northeast 428 493 37,000  Level New York Center
10:13PM 39.8747 -74.1789 36° Northeast 439 505 37,000  Level New York Center
10:14PM 39.9733 -74.0864 36° Northeast 439 505 37,000  Level New York Center
10:15PM 40.0694 -73.9986 35° Northeast 439 505 37,000  Level New York Center
10:16PM 40.1658 -73.9053 36° Northeast 439 505 37,000  Level New York Center
10:17PM 40.2619 -73.8119 37° Northeast 439 505 37,000 -540 Level New York Center
10:18PM 40.3622 -73.7236 34° Northeast 439 505 36,000 -2,340 Descending New York Center
10:19PM 40.4561 -73.6322 37° Northeast 433 498 32,400 -3,360 Descending New York Center
10:21PM 40.6306 -73.4600 37° Northeast 442 509 26,100 -3,060 Descending Boston Center
10:22PM 40.7272 -73.3658 36° Northeast 435 501 23,400 -1,620 Descending Boston Center
10:23PM 40.8303 -73.2656 36° Northeast 429 494 23,000 -960 Descending Boston Center
10:24PM 40.9142 -73.1653 42° Northeast 416 479 21,500 -1,920 Descending Boston Center
10:25PM 40.9961 -73.0669 42° Northeast 398 458 19,300 -2,220 Descending Boston Center
10:26PM 41.0675 -72.9853 41° Northeast 383 441 17,200 -2,100 Descending Boston Center
10:27PM 41.1386 -72.9003 42° Northeast 367 422 15,100 -1,140 Descending Boston Center
10:28PM 41.2119 -72.8153 41° Northeast 345 397 15,000 -60 Descending Boston Center
10:29PM 41.2914 -72.7219 41° Northeast 337 388 15,000  Level Boston Center
10:30PM 41.3706 -72.6558 32° Northeast 350 403 15,000  Level Boston Center
10:31PM 41.4686 -72.5731 32° Northeast 371 427 15,000  Level Boston Center
10:32PM 41.5167 -72.5289 35° Northeast 380 437 15,000  Level Boston Center
10:32PM 41.5583 -72.4956 31° Northeast 371 427 15,000 -960 Level Boston Center
10:33PM 41.6458 -72.4233 32° Northeast 376 433 13,700 -1,440 Descending Boston Center
10:33PM 41.6542 -72.4122 45° Northeast 380 437 13,400 -2,280 Descending Boston Center
10:34PM 41.7292 -72.3539 30° Northeast 359 413 11,500 -2,160 Descending Boston Center
10:35PM 41.7481 -72.3372 33° Northeast 344 396 11,100 -1,440 Descending Boston Center
10:35PM 41.8083 -72.2814 35° Northeast 348 400 10,100 -1,080 Descending Boston Center
10:36PM 41.8314 -72.2644 29° Northeast 344 396 10,000 -120 Descending Boston Center
10:36PM 41.8875 -72.2142 34° Northeast 342 394 10,000  Level Boston Center
10:37PM 41.9083 -72.2003 26° Northeast 334 384 10,000  Level Boston Center
10:37PM 41.9664 -72.1469 34° Northeast 342 394 10,000  Level Boston Center
10:38PM 41.9894 -72.1300 29° Northeast 339 390 10,000 -120 Level Boston Center
10:39PM 42.0600 -72.0681 33° Northeast 288 331 9,900 -660 Descending Boston Center
10:39PM 42.1078 -72.0258 33° Northeast 304 350 8,900 -1,560 Descending Boston Center
10:40PM 42.1681 -71.9611 39° Northeast 274 315 7,300 -1,440 Descending Boston Center
10:41PM 42.2178 -71.9019 41° Northeast 263 303 6,100 -1,200 Descending Boston Center
10:42PM 42.2800 -71.8367 38° Northeast 257 296 5,000 -600 Descending Boston Center
10:43PM 42.3297 -71.7803 40° Northeast 251 289 5,000 -240 Level Boston Center
10:44PM 42.3897 -71.7119 40° Northeast 252 290 4,600 -720 Descending Boston Center
10:45PM 42.4394 -71.6525 41° Northeast 252 290 3,700 -1,020 Descending Boston Center
10:46PM 42.4667 -71.6167 44° Northeast 234 269 3,100 -1,080 Descending KA90
10:47PM 42.5000 -71.5500 56° Northeast 215 247 2,100 -600 Descending KA90
10:48PM 42.4833 -71.4833 109° East 177 204 2,000 -60 Descending KA90
10:49PM 42.4833 -71.4333 90° East 129 148 2,000 -300 Level KA90
10:50PM 42.4833 -71.3833 90° East 101 116 1,500 -540 Descending KA90
10:51PM 42.4833 -71.3500 90° East 109 125 1,000 -540 Descending KA90
10:52PM 42.4717 -71.2944 106° East 106 122 300 -480 Descending Boston Center
10:54PM 42.4667 -71.2833 66° East  Level FlightAware Approximate